sensor_id;sensor_type;location;lat;lon;timestamp;P1;durP1;ratioP1;P2;durP2;ratioP2
23404;SDS011;11875;49.356;2.718;2023-01-28T00:02:25;15.87;;;9.10;;
23404;SDS011;11875;49.356;2.718;2023-01-28T00:04:51;13.03;;;8.50;;
23404;SDS011;11875;49.356;2.718;2023-01-28T00:07:16;16.00;;;8.27;;
23404;SDS011;11875;49.356;2.718;2023-01-28T00:09:43;14.13;;;8.20;;
23404;SDS011;11875;49.356;2.718;2023-01-28T00:12:08;14.23;;;8.73;;
23404;SDS011;11875;49.356;2.718;2023-01-28T00:14:34;14.50;;;8.87;;
23404;SDS011;11875;49.356;2.718;2023-01-28T00:17:00;15.77;;;9.10;;
23404;SDS011;11875;49.356;2.718;2023-01-28T00:19:25;16.00;;;8.90;;
23404;SDS011;11875;49.356;2.718;2023-01-28T00:21:51;16.00;;;9.20;;
23404;SDS011;11875;49.356;2.718;2023-01-28T00:24:16;15.40;;;9.77;;
23404;SDS011;11875;49.356;2.718;2023-01-28T00:26:42;15.53;;;9.27;;
23404;SDS011;11875;49.356;2.718;2023-01-28T00:29:08;17.97;;;10.23;;
23404;SDS011;11875;49.356;2.718;2023-01-28T00:31:33;15.90;;;10.10;;
23404;SDS011;11875;49.356;2.718;2023-01-28T00:33:59;20.13;;;10.30;;
23404;SDS011;11875;49.356;2.718;2023-01-28T00:36:25;17.37;;;9.83;;
23404;SDS011;11875;49.356;2.718;2023-01-28T00:38:55;18.93;;;10.37;;
23404;SDS011;11875;49.356;2.718;2023-01-28T00:41:23;17.90;;;10.80;;
23404;SDS011;11875;49.356;2.718;2023-01-28T00:43:51;19.37;;;11.03;;
23404;SDS011;11875;49.356;2.718;2023-01-28T00:46:18;20.53;;;11.20;;
23404;SDS011;11875;49.356;2.718;2023-01-28T00:48:45;21.83;;;11.40;;
23404;SDS011;11875;49.356;2.718;2023-01-28T00:51:12;18.33;;;10.77;;
23404;SDS011;11875;49.356;2.718;2023-01-28T00:53:41;19.50;;;10.73;;
23404;SDS011;11875;49.356;2.718;2023-01-28T00:56:07;17.27;;;10.30;;
23404;SDS011;11875;49.356;2.718;2023-01-28T00:58:36;19.27;;;10.90;;
23404;SDS011;11875;49.356;2.718;2023-01-28T01:01:21;20.60;;;11.60;;
23404;SDS011;11875;49.356;2.718;2023-01-28T01:03:49;19.73;;;11.40;;
23404;SDS011;11875;49.356;2.718;2023-01-28T01:06:21;19.50;;;11.53;;
23404;SDS011;11875;49.356;2.718;2023-01-28T01:08:48;20.60;;;11.07;;
23404;SDS011;11875;49.356;2.718;2023-01-28T01:11:15;19.00;;;10.97;;
23404;SDS011;11875;49.356;2.718;2023-01-28T01:13:41;19.03;;;11.13;;
23404;SDS011;11875;49.356;2.718;2023-01-28T01:16:09;19.67;;;11.13;;
23404;SDS011;11875;49.356;2.718;2023-01-28T01:18:40;18.57;;;11.43;;
23404;SDS011;11875;49.356;2.718;2023-01-28T01:21:10;19.83;;;11.23;;
23404;SDS011;11875;49.356;2.718;2023-01-28T01:23:37;18.83;;;11.10;;
23404;SDS011;11875;49.356;2.718;2023-01-28T01:26:03;19.00;;;10.63;;
23404;SDS011;11875;49.356;2.718;2023-01-28T01:28:29;18.50;;;10.77;;
23404;SDS011;11875;49.356;2.718;2023-01-28T01:30:59;18.43;;;11.20;;
23404;SDS011;11875;49.356;2.718;2023-01-28T01:33:30;20.43;;;11.50;;
23404;SDS011;11875;49.356;2.718;2023-01-28T01:35:56;18.20;;;10.57;;
23404;SDS011;11875;49.356;2.718;2023-01-28T01:38:22;19.57;;;11.60;;
23404;SDS011;11875;49.356;2.718;2023-01-28T01:40:48;18.37;;;10.80;;
23404;SDS011;11875;49.356;2.718;2023-01-28T01:43:15;18.60;;;11.07;;
23404;SDS011;11875;49.356;2.718;2023-01-28T01:45:42;19.43;;;10.93;;
23404;SDS011;11875;49.356;2.718;2023-01-28T01:48:14;14.43;;;9.67;;
23404;SDS011;11875;49.356;2.718;2023-01-28T01:51:03;17.93;;;11.17;;
23404;SDS011;11875;49.356;2.718;2023-01-28T01:53:35;19.23;;;11.10;;
23404;SDS011;11875;49.356;2.718;2023-01-28T01:56:04;19.43;;;11.10;;
23404;SDS011;11875;49.356;2.718;2023-01-28T01:58:34;16.70;;;9.83;;
23404;SDS011;11875;49.356;2.718;2023-01-28T02:01:02;18.17;;;10.93;;
23404;SDS011;11875;49.356;2.718;2023-01-28T02:03:30;17.17;;;10.87;;
23404;SDS011;11875;49.356;2.718;2023-01-28T02:06:05;17.90;;;10.73;;
23404;SDS011;11875;49.356;2.718;2023-01-28T02:08:32;18.43;;;10.43;;
23404;SDS011;11875;49.356;2.718;2023-01-28T02:11:01;16.83;;;10.37;;
23404;SDS011;11875;49.356;2.718;2023-01-28T02:13:31;15.43;;;9.57;;
23404;SDS011;11875;49.356;2.718;2023-01-28T02:16:06;18.43;;;9.93;;
23404;SDS011;11875;49.356;2.718;2023-01-28T02:18:33;18.00;;;10.57;;
23404;SDS011;11875;49.356;2.718;2023-01-28T02:29:26;17.97;;;10.43;;
23404;SDS011;11875;49.356;2.718;2023-01-28T02:32:23;19.47;;;10.47;;
23404;SDS011;11875;49.356;2.718;2023-01-28T02:40:27;16.20;;;9.67;;
23404;SDS011;11875;49.356;2.718;2023-01-28T02:42:58;16.77;;;10.43;;
23404;SDS011;11875;49.356;2.718;2023-01-28T02:45:25;17.27;;;10.27;;
23404;SDS011;11875;49.356;2.718;2023-01-28T02:48:12;17.13;;;10.70;;
23404;SDS011;11875;49.356;2.718;2023-01-28T02:50:41;18.53;;;10.73;;
23404;SDS011;11875;49.356;2.718;2023-01-28T02:53:27;17.47;;;10.43;;
23404;SDS011;11875;49.356;2.718;2023-01-28T03:01:55;16.77;;;9.87;;
23404;SDS011;11875;49.356;2.718;2023-01-28T03:04:27;18.27;;;11.30;;
23404;SDS011;11875;49.356;2.718;2023-01-28T03:06:59;20.30;;;10.93;;
23404;SDS011;11875;49.356;2.718;2023-01-28T03:09:29;16.43;;;10.30;;
23404;SDS011;11875;49.356;2.718;2023-01-28T03:14:56;19.33;;;11.10;;
23404;SDS011;11875;49.356;2.718;2023-01-28T03:18:12;18.67;;;11.17;;
23404;SDS011;11875;49.356;2.718;2023-01-28T03:24:02;19.23;;;11.23;;
23404;SDS011;11875;49.356;2.718;2023-01-28T03:27:05;20.10;;;11.30;;
23404;SDS011;11875;49.356;2.718;2023-01-28T03:30:18;22.33;;;11.70;;
23404;SDS011;11875;49.356;2.718;2023-01-28T03:33:06;20.07;;;10.90;;
23404;SDS011;11875;49.356;2.718;2023-01-28T03:35:51;17.07;;;10.47;;
23404;SDS011;11875;49.356;2.718;2023-01-28T03:38:35;20.20;;;11.37;;
23404;SDS011;11875;49.356;2.718;2023-01-28T03:41:07;17.70;;;11.27;;
23404;SDS011;11875;49.356;2.718;2023-01-28T03:43:35;19.50;;;11.30;;
23404;SDS011;11875;49.356;2.718;2023-01-28T03:46:01;18.20;;;11.17;;
23404;SDS011;11875;49.356;2.718;2023-01-28T03:48:28;18.20;;;10.87;;
23404;SDS011;11875;49.356;2.718;2023-01-28T03:50:54;20.50;;;12.03;;
23404;SDS011;11875;49.356;2.718;2023-01-28T03:53:20;19.80;;;11.93;;
23404;SDS011;11875;49.356;2.718;2023-01-28T03:55:47;19.20;;;11.97;;
23404;SDS011;11875;49.356;2.718;2023-01-28T03:58:14;20.13;;;11.87;;
23404;SDS011;11875;49.356;2.718;2023-01-28T04:00:40;18.80;;;11.50;;
23404;SDS011;11875;49.356;2.718;2023-01-28T04:03:07;21.97;;;11.67;;
23404;SDS011;11875;49.356;2.718;2023-01-28T04:06:00;22.23;;;12.00;;
23404;SDS011;11875;49.356;2.718;2023-01-28T04:08:27;20.37;;;12.10;;
23404;SDS011;11875;49.356;2.718;2023-01-28T04:10:53;19.90;;;12.00;;
23404;SDS011;11875;49.356;2.718;2023-01-28T04:13:19;22.63;;;12.43;;
23404;SDS011;11875;49.356;2.718;2023-01-28T04:15:45;20.27;;;12.27;;
23404;SDS011;11875;49.356;2.718;2023-01-28T04:18:12;19.57;;;11.87;;
23404;SDS011;11875;49.356;2.718;2023-01-28T04:20:38;21.97;;;12.97;;
23404;SDS011;11875;49.356;2.718;2023-01-28T04:23:04;20.93;;;12.20;;
23404;SDS011;11875;49.356;2.718;2023-01-28T04:25:31;22.00;;;12.17;;
23404;SDS011;11875;49.356;2.718;2023-01-28T04:27:57;18.50;;;11.37;;
23404;SDS011;11875;49.356;2.718;2023-01-28T04:30:23;20.57;;;12.17;;
23404;SDS011;11875;49.356;2.718;2023-01-28T04:32:49;20.23;;;11.90;;
23404;SDS011;11875;49.356;2.718;2023-01-28T04:35:14;21.17;;;12.37;;
23404;SDS011;11875;49.356;2.718;2023-01-28T04:37:41;19.77;;;11.90;;
23404;SDS011;11875;49.356;2.718;2023-01-28T04:40:07;22.47;;;12.40;;
23404;SDS011;11875;49.356;2.718;2023-01-28T04:42:33;21.33;;;11.73;;
23404;SDS011;11875;49.356;2.718;2023-01-28T04:44:59;22.13;;;11.47;;
23404;SDS011;11875;49.356;2.718;2023-01-28T04:47:24;19.97;;;11.80;;
23404;SDS011;11875;49.356;2.718;2023-01-28T04:49:50;20.23;;;11.33;;
23404;SDS011;11875;49.356;2.718;2023-01-28T04:52:15;19.43;;;11.60;;
23404;SDS011;11875;49.356;2.718;2023-01-28T04:54:41;22.77;;;12.20;;
23404;SDS011;11875;49.356;2.718;2023-01-28T04:57:07;22.67;;;11.53;;
23404;SDS011;11875;49.356;2.718;2023-01-28T04:59:32;19.77;;;11.83;;
23404;SDS011;11875;49.356;2.718;2023-01-28T05:01:58;19.20;;;11.17;;
23404;SDS011;11875;49.356;2.718;2023-01-28T05:04:24;19.97;;;11.40;;
23404;SDS011;11875;49.356;2.718;2023-01-28T05:06:49;19.77;;;12.07;;
23404;SDS011;11875;49.356;2.718;2023-01-28T05:09:15;19.33;;;11.90;;
23404;SDS011;11875;49.356;2.718;2023-01-28T05:11:41;20.97;;;11.73;;
23404;SDS011;11875;49.356;2.718;2023-01-28T05:14:07;22.87;;;12.33;;
23404;SDS011;11875;49.356;2.718;2023-01-28T05:16:32;22.77;;;12.47;;
23404;SDS011;11875;49.356;2.718;2023-01-28T05:18:59;21.57;;;12.13;;
23404;SDS011;11875;49.356;2.718;2023-01-28T05:21:25;22.00;;;12.37;;
23404;SDS011;11875;49.356;2.718;2023-01-28T05:23:52;20.93;;;11.93;;
23404;SDS011;11875;49.356;2.718;2023-01-28T05:26:17;18.97;;;11.23;;
23404;SDS011;11875;49.356;2.718;2023-01-28T05:28:43;20.17;;;11.70;;
23404;SDS011;11875;49.356;2.718;2023-01-28T05:31:09;17.37;;;10.80;;
23404;SDS011;11875;49.356;2.718;2023-01-28T05:33:35;19.67;;;11.40;;
23404;SDS011;11875;49.356;2.718;2023-01-28T05:36:01;17.57;;;11.07;;
23404;SDS011;11875;49.356;2.718;2023-01-28T05:38:27;19.07;;;11.40;;
23404;SDS011;11875;49.356;2.718;2023-01-28T05:40:53;20.67;;;11.67;;
23404;SDS011;11875;49.356;2.718;2023-01-28T05:43:18;19.13;;;10.57;;
23404;SDS011;11875;49.356;2.718;2023-01-28T05:45:44;20.53;;;11.90;;
23404;SDS011;11875;49.356;2.718;2023-01-28T05:48:11;21.23;;;12.17;;
23404;SDS011;11875;49.356;2.718;2023-01-28T05:50:37;19.30;;;11.77;;
23404;SDS011;11875;49.356;2.718;2023-01-28T05:53:06;20.63;;;12.17;;
23404;SDS011;11875;49.356;2.718;2023-01-28T05:55:32;19.77;;;11.43;;
23404;SDS011;11875;49.356;2.718;2023-01-28T05:57:58;19.43;;;11.90;;
23404;SDS011;11875;49.356;2.718;2023-01-28T06:00:23;21.60;;;11.50;;
23404;SDS011;11875;49.356;2.718;2023-01-28T06:02:50;19.73;;;11.30;;
23404;SDS011;11875;49.356;2.718;2023-01-28T06:05:16;21.03;;;11.73;;
23404;SDS011;11875;49.356;2.718;2023-01-28T06:07:48;21.13;;;12.40;;
23404;SDS011;11875;49.356;2.718;2023-01-28T06:10:14;18.57;;;11.20;;
23404;SDS011;11875;49.356;2.718;2023-01-28T06:12:42;19.90;;;11.27;;
23404;SDS011;11875;49.356;2.718;2023-01-28T06:15:08;16.93;;;10.80;;
23404;SDS011;11875;49.356;2.718;2023-01-28T06:17:34;23.50;;;12.23;;
23404;SDS011;11875;49.356;2.718;2023-01-28T06:20:00;19.53;;;11.37;;
23404;SDS011;11875;49.356;2.718;2023-01-28T06:22:25;19.27;;;11.30;;
23404;SDS011;11875;49.356;2.718;2023-01-28T06:24:51;24.60;;;11.67;;
23404;SDS011;11875;49.356;2.718;2023-01-28T06:27:16;22.27;;;11.70;;
23404;SDS011;11875;49.356;2.718;2023-01-28T06:29:42;21.50;;;11.77;;
23404;SDS011;11875;49.356;2.718;2023-01-28T06:32:08;20.37;;;11.97;;
23404;SDS011;11875;49.356;2.718;2023-01-28T06:34:33;23.77;;;12.13;;
23404;SDS011;11875;49.356;2.718;2023-01-28T06:36:59;20.03;;;10.87;;
23404;SDS011;11875;49.356;2.718;2023-01-28T06:39:24;23.20;;;12.50;;
23404;SDS011;11875;49.356;2.718;2023-01-28T06:41:52;23.53;;;11.70;;
23404;SDS011;11875;49.356;2.718;2023-01-28T06:44:17;20.80;;;11.27;;
23404;SDS011;11875;49.356;2.718;2023-01-28T06:46:44;22.67;;;12.30;;
23404;SDS011;11875;49.356;2.718;2023-01-28T06:49:09;20.30;;;11.43;;
23404;SDS011;11875;49.356;2.718;2023-01-28T06:51:35;19.37;;;11.90;;
23404;SDS011;11875;49.356;2.718;2023-01-28T06:54:01;21.67;;;11.80;;
23404;SDS011;11875;49.356;2.718;2023-01-28T06:56:26;20.40;;;11.63;;
23404;SDS011;11875;49.356;2.718;2023-01-28T06:58:52;21.87;;;12.00;;
23404;SDS011;11875;49.356;2.718;2023-01-28T07:01:17;22.63;;;12.10;;
23404;SDS011;11875;49.356;2.718;2023-01-28T07:03:43;20.47;;;11.50;;
23404;SDS011;11875;49.356;2.718;2023-01-28T07:06:09;20.93;;;12.17;;
23404;SDS011;11875;49.356;2.718;2023-01-28T07:08:34;21.67;;;11.87;;
23404;SDS011;11875;49.356;2.718;2023-01-28T07:11:01;20.67;;;11.77;;
23404;SDS011;11875;49.356;2.718;2023-01-28T07:13:28;22.03;;;12.20;;
23404;SDS011;11875;49.356;2.718;2023-01-28T07:15:54;19.00;;;10.83;;
23404;SDS011;11875;49.356;2.718;2023-01-28T07:18:20;22.07;;;11.97;;
23404;SDS011;11875;49.356;2.718;2023-01-28T07:20:45;21.10;;;11.97;;
23404;SDS011;11875;49.356;2.718;2023-01-28T07:23:11;21.50;;;11.50;;
23404;SDS011;11875;49.356;2.718;2023-01-28T07:25:37;21.07;;;11.83;;
23404;SDS011;11875;49.356;2.718;2023-01-28T07:28:02;22.07;;;12.47;;
23404;SDS011;11875;49.356;2.718;2023-01-28T07:30:28;24.33;;;12.37;;
23404;SDS011;11875;49.356;2.718;2023-01-28T07:32:54;21.23;;;11.97;;
23404;SDS011;11875;49.356;2.718;2023-01-28T07:35:21;20.23;;;12.97;;
23404;SDS011;11875;49.356;2.718;2023-01-28T07:37:53;21.30;;;12.30;;
23404;SDS011;11875;49.356;2.718;2023-01-28T07:40:20;19.97;;;11.53;;
23404;SDS011;11875;49.356;2.718;2023-01-28T07:42:46;20.07;;;11.83;;
23404;SDS011;11875;49.356;2.718;2023-01-28T07:45:13;21.40;;;12.43;;
23404;SDS011;11875;49.356;2.718;2023-01-28T07:47:39;21.00;;;11.73;;
23404;SDS011;11875;49.356;2.718;2023-01-28T07:50:05;19.93;;;11.97;;
23404;SDS011;11875;49.356;2.718;2023-01-28T07:52:31;21.63;;;12.77;;
23404;SDS011;11875;49.356;2.718;2023-01-28T07:55:02;23.47;;;12.90;;
23404;SDS011;11875;49.356;2.718;2023-01-28T07:57:29;23.83;;;12.87;;
23404;SDS011;11875;49.356;2.718;2023-01-28T07:59:54;22.87;;;11.77;;
23404;SDS011;11875;49.356;2.718;2023-01-28T08:02:20;22.13;;;12.27;;
23404;SDS011;11875;49.356;2.718;2023-01-28T08:04:45;19.77;;;12.20;;
23404;SDS011;11875;49.356;2.718;2023-01-28T08:07:11;21.37;;;12.30;;
23404;SDS011;11875;49.356;2.718;2023-01-28T08:09:37;19.50;;;12.10;;
23404;SDS011;11875;49.356;2.718;2023-01-28T08:12:03;22.00;;;12.37;;
23404;SDS011;11875;49.356;2.718;2023-01-28T08:14:28;21.53;;;12.23;;
23404;SDS011;11875;49.356;2.718;2023-01-28T08:16:54;22.33;;;12.23;;
23404;SDS011;11875;49.356;2.718;2023-01-28T08:19:21;21.20;;;12.10;;
23404;SDS011;11875;49.356;2.718;2023-01-28T08:21:47;19.37;;;12.00;;
23404;SDS011;11875;49.356;2.718;2023-01-28T08:24:12;21.53;;;12.13;;
23404;SDS011;11875;49.356;2.718;2023-01-28T08:26:38;22.17;;;12.70;;
23404;SDS011;11875;49.356;2.718;2023-01-28T08:29:03;20.43;;;12.27;;
23404;SDS011;11875;49.356;2.718;2023-01-28T08:31:29;21.70;;;12.77;;
23404;SDS011;11875;49.356;2.718;2023-01-28T08:33:55;22.83;;;12.70;;
23404;SDS011;11875;49.356;2.718;2023-01-28T08:36:21;19.97;;;11.87;;
23404;SDS011;11875;49.356;2.718;2023-01-28T08:38:50;22.13;;;11.90;;
23404;SDS011;11875;49.356;2.718;2023-01-28T08:41:21;17.43;;;11.10;;
23404;SDS011;11875;49.356;2.718;2023-01-28T08:43:47;21.97;;;12.33;;
23404;SDS011;11875;49.356;2.718;2023-01-28T08:46:13;18.20;;;10.60;;
23404;SDS011;11875;49.356;2.718;2023-01-28T08:48:40;21.73;;;10.83;;
23404;SDS011;11875;49.356;2.718;2023-01-28T08:51:06;18.47;;;10.43;;
23404;SDS011;11875;49.356;2.718;2023-01-28T08:53:32;17.20;;;9.60;;
23404;SDS011;11875;49.356;2.718;2023-01-28T08:55:57;16.50;;;10.50;;
23404;SDS011;11875;49.356;2.718;2023-01-28T08:58:23;17.13;;;10.73;;
23404;SDS011;11875;49.356;2.718;2023-01-28T09:00:49;18.63;;;10.57;;
23404;SDS011;11875;49.356;2.718;2023-01-28T09:03:15;15.33;;;9.87;;
23404;SDS011;11875;49.356;2.718;2023-01-28T09:05:42;16.07;;;10.07;;
23404;SDS011;11875;49.356;2.718;2023-01-28T09:08:09;16.47;;;10.43;;
23404;SDS011;11875;49.356;2.718;2023-01-28T09:10:37;17.07;;;10.07;;
23404;SDS011;11875;49.356;2.718;2023-01-28T09:13:06;20.43;;;9.83;;
23404;SDS011;11875;49.356;2.718;2023-01-28T09:15:34;16.67;;;10.20;;
23404;SDS011;11875;49.356;2.718;2023-01-28T09:18:00;20.53;;;10.90;;
23404;SDS011;11875;49.356;2.718;2023-01-28T09:20:26;18.13;;;10.30;;
23404;SDS011;11875;49.356;2.718;2023-01-28T09:22:52;18.47;;;10.10;;
23404;SDS011;11875;49.356;2.718;2023-01-28T09:25:18;17.30;;;9.77;;
23404;SDS011;11875;49.356;2.718;2023-01-28T09:27:43;13.80;;;8.77;;
23404;SDS011;11875;49.356;2.718;2023-01-28T09:30:09;15.77;;;9.53;;
23404;SDS011;11875;49.356;2.718;2023-01-28T09:32:37;14.50;;;8.93;;
23404;SDS011;11875;49.356;2.718;2023-01-28T09:35:03;16.37;;;9.90;;
23404;SDS011;11875;49.356;2.718;2023-01-28T09:37:29;18.37;;;10.63;;
23404;SDS011;11875;49.356;2.718;2023-01-28T09:39:55;16.17;;;10.43;;
23404;SDS011;11875;49.356;2.718;2023-01-28T09:47:45;17.10;;;9.77;;
23404;SDS011;11875;49.356;2.718;2023-01-28T09:50:29;16.00;;;9.90;;
23404;SDS011;11875;49.356;2.718;2023-01-28T09:53:03;17.07;;;10.03;;
23404;SDS011;11875;49.356;2.718;2023-01-28T09:56:35;16.47;;;9.70;;
23404;SDS011;11875;49.356;2.718;2023-01-28T09:58:38;18.27;;;10.10;;
23404;SDS011;11875;49.356;2.718;2023-01-28T10:03:54;16.00;;;9.43;;
23404;SDS011;11875;49.356;2.718;2023-01-28T10:17:44;16.77;;;9.20;;
23404;SDS011;11875;49.356;2.718;2023-01-28T10:22:38;18.40;;;10.47;;
23404;SDS011;11875;49.356;2.718;2023-01-28T10:25:17;17.50;;;10.13;;
23404;SDS011;11875;49.356;2.718;2023-01-28T10:27:44;17.97;;;10.50;;
23404;SDS011;11875;49.356;2.718;2023-01-28T10:30:25;19.90;;;10.73;;
23404;SDS011;11875;49.356;2.718;2023-01-28T10:32:53;19.17;;;10.87;;
23404;SDS011;11875;49.356;2.718;2023-01-28T10:35:27;20.63;;;10.60;;
23404;SDS011;11875;49.356;2.718;2023-01-28T10:37:59;16.83;;;10.17;;
23404;SDS011;11875;49.356;2.718;2023-01-28T10:40:30;16.60;;;9.97;;
23404;SDS011;11875;49.356;2.718;2023-01-28T10:42:56;18.30;;;11.10;;
23404;SDS011;11875;49.356;2.718;2023-01-28T10:45:33;18.53;;;11.20;;
23404;SDS011;11875;49.356;2.718;2023-01-28T10:48:24;17.57;;;10.70;;
23404;SDS011;11875;49.356;2.718;2023-01-28T10:50:55;17.83;;;10.03;;
23404;SDS011;11875;49.356;2.718;2023-01-28T10:55:59;16.93;;;9.77;;
23404;SDS011;11875;49.356;2.718;2023-01-28T10:58:26;15.87;;;8.97;;
23404;SDS011;11875;49.356;2.718;2023-01-28T11:01:02;16.97;;;9.57;;
23404;SDS011;11875;49.356;2.718;2023-01-28T11:03:30;17.53;;;10.20;;
23404;SDS011;11875;49.356;2.718;2023-01-28T11:05:58;19.63;;;11.17;;
23404;SDS011;11875;49.356;2.718;2023-01-28T11:08:26;15.70;;;10.07;;
23404;SDS011;11875;49.356;2.718;2023-01-28T11:10:53;19.23;;;10.80;;
23404;SDS011;11875;49.356;2.718;2023-01-28T11:13:21;17.03;;;10.50;;
23404;SDS011;11875;49.356;2.718;2023-01-28T11:15:50;19.47;;;11.27;;
23404;SDS011;11875;49.356;2.718;2023-01-28T11:18:18;16.17;;;9.67;;
23404;SDS011;11875;49.356;2.718;2023-01-28T11:20:55;18.20;;;10.80;;
23404;SDS011;11875;49.356;2.718;2023-01-28T11:23:24;19.33;;;10.87;;
23404;SDS011;11875;49.356;2.718;2023-01-28T11:26:14;18.30;;;10.63;;
23404;SDS011;11875;49.356;2.718;2023-01-28T11:28:45;17.50;;;10.70;;
23404;SDS011;11875;49.356;2.718;2023-01-28T11:31:12;19.33;;;11.27;;
23404;SDS011;11875;49.356;2.718;2023-01-28T11:33:48;17.97;;;10.97;;
23404;SDS011;11875;49.356;2.718;2023-01-28T11:36:24;19.27;;;11.50;;
23404;SDS011;11875;49.356;2.718;2023-01-28T11:41:28;18.67;;;10.53;;
23404;SDS011;11875;49.356;2.718;2023-01-28T11:43:57;17.63;;;10.03;;
23404;SDS011;11875;49.356;2.718;2023-01-28T11:48:59;15.87;;;9.90;;
23404;SDS011;11875;49.356;2.718;2023-01-28T11:57:25;20.43;;;10.57;;
23404;SDS011;11875;49.356;2.718;2023-01-28T12:00:27;16.03;;;9.87;;
23404;SDS011;11875;49.356;2.718;2023-01-28T12:39:36;16.00;;;9.17;;
23404;SDS011;11875;49.356;2.718;2023-01-28T12:41:34;16.13;;;9.57;;
23404;SDS011;11875;49.356;2.718;2023-01-28T12:44:10;18.63;;;10.63;;
23404;SDS011;11875;49.356;2.718;2023-01-28T12:57:04;16.03;;;9.77;;
23404;SDS011;11875;49.356;2.718;2023-01-28T12:59:38;19.20;;;10.40;;
23404;SDS011;11875;49.356;2.718;2023-01-28T13:02:28;16.63;;;9.93;;
23404;SDS011;11875;49.356;2.718;2023-01-28T13:05:09;18.03;;;11.13;;
23404;SDS011;11875;49.356;2.718;2023-01-28T13:07:46;17.97;;;10.83;;
23404;SDS011;11875;49.356;2.718;2023-01-28T13:10:23;15.50;;;9.83;;
23404;SDS011;11875;49.356;2.718;2023-01-28T13:13:12;16.73;;;10.13;;
23404;SDS011;11875;49.356;2.718;2023-01-28T13:15:52;17.87;;;10.63;;
23404;SDS011;11875;49.356;2.718;2023-01-28T13:18:51;20.13;;;12.60;;
23404;SDS011;11875;49.356;2.718;2023-01-28T13:21:12;16.67;;;10.60;;
23404;SDS011;11875;49.356;2.718;2023-01-28T13:28:48;22.97;;;11.80;;
23404;SDS011;11875;49.356;2.718;2023-01-28T13:31:16;18.93;;;11.27;;
23404;SDS011;11875;49.356;2.718;2023-01-28T13:38:44;18.57;;;11.37;;
23404;SDS011;11875;49.356;2.718;2023-01-28T13:41:10;20.27;;;11.60;;
23404;SDS011;11875;49.356;2.718;2023-01-28T13:43:37;18.10;;;11.47;;
23404;SDS011;11875;49.356;2.718;2023-01-28T13:46:09;19.17;;;12.23;;
23404;SDS011;11875;49.356;2.718;2023-01-28T13:48:52;19.27;;;11.83;;
23404;SDS011;11875;49.356;2.718;2023-01-28T13:51:22;20.53;;;11.57;;
23404;SDS011;11875;49.356;2.718;2023-01-28T13:56:54;18.40;;;11.20;;
23404;SDS011;11875;49.356;2.718;2023-01-28T13:59:28;18.60;;;10.83;;
23404;SDS011;11875;49.356;2.718;2023-01-28T14:02:28;18.50;;;11.03;;
23404;SDS011;11875;49.356;2.718;2023-01-28T14:11:19;19.33;;;11.43;;
23404;SDS011;11875;49.356;2.718;2023-01-28T14:19:51;21.40;;;11.77;;
23404;SDS011;11875;49.356;2.718;2023-01-28T14:22:19;19.67;;;11.70;;
23404;SDS011;11875;49.356;2.718;2023-01-28T14:24:45;21.80;;;12.57;;
23404;SDS011;11875;49.356;2.718;2023-01-28T14:27:14;19.73;;;12.20;;
23404;SDS011;11875;49.356;2.718;2023-01-28T14:32:28;21.47;;;12.77;;
23404;SDS011;11875;49.356;2.718;2023-01-28T14:34:55;21.50;;;12.33;;
23404;SDS011;11875;49.356;2.718;2023-01-28T14:37:27;21.30;;;12.10;;
23404;SDS011;11875;49.356;2.718;2023-01-28T14:40:28;19.23;;;12.13;;
23404;SDS011;11875;49.356;2.718;2023-01-28T14:42:48;20.33;;;11.90;;
23404;SDS011;11875;49.356;2.718;2023-01-28T14:48:16;33.20;;;19.57;;
23404;SDS011;11875;49.356;2.718;2023-01-28T15:02:23;18.70;;;11.43;;
23404;SDS011;11875;49.356;2.718;2023-01-28T15:04:50;20.47;;;11.93;;
23404;SDS011;11875;49.356;2.718;2023-01-28T15:07:23;21.90;;;12.17;;
23404;SDS011;11875;49.356;2.718;2023-01-28T15:10:04;19.17;;;10.93;;
23404;SDS011;11875;49.356;2.718;2023-01-28T15:12:36;19.60;;;11.27;;
23404;SDS011;11875;49.356;2.718;2023-01-28T15:15:13;21.10;;;12.47;;
23404;SDS011;11875;49.356;2.718;2023-01-28T15:17:42;21.67;;;12.30;;
23404;SDS011;11875;49.356;2.718;2023-01-28T15:20:08;23.33;;;13.00;;
23404;SDS011;11875;49.356;2.718;2023-01-28T15:22:40;20.37;;;11.83;;
23404;SDS011;11875;49.356;2.718;2023-01-28T15:25:13;21.60;;;12.60;;
23404;SDS011;11875;49.356;2.718;2023-01-28T15:27:44;23.40;;;12.60;;
23404;SDS011;11875;49.356;2.718;2023-01-28T15:30:23;22.53;;;12.20;;
23404;SDS011;11875;49.356;2.718;2023-01-28T15:35:26;18.73;;;11.63;;
23404;SDS011;11875;49.356;2.718;2023-01-28T15:37:51;20.50;;;12.03;;
23404;SDS011;11875;49.356;2.718;2023-01-28T15:40:17;19.53;;;11.60;;
23404;SDS011;11875;49.356;2.718;2023-01-28T15:42:48;20.13;;;11.57;;
23404;SDS011;11875;49.356;2.718;2023-01-28T15:45:19;18.93;;;11.37;;
23404;SDS011;11875;49.356;2.718;2023-01-28T15:47:47;20.63;;;10.63;;
23404;SDS011;11875;49.356;2.718;2023-01-28T15:50:20;19.77;;;12.07;;
23404;SDS011;11875;49.356;2.718;2023-01-28T15:52:48;21.10;;;11.87;;
23404;SDS011;11875;49.356;2.718;2023-01-28T15:58:08;16.33;;;10.07;;
23404;SDS011;11875;49.356;2.718;2023-01-28T16:00:40;17.27;;;10.37;;
23404;SDS011;11875;49.356;2.718;2023-01-28T16:03:09;17.73;;;10.23;;
23404;SDS011;11875;49.356;2.718;2023-01-28T16:05:42;15.43;;;9.53;;
23404;SDS011;11875;49.356;2.718;2023-01-28T16:08:33;17.60;;;10.60;;
23404;SDS011;11875;49.356;2.718;2023-01-28T16:11:03;16.53;;;9.80;;
23404;SDS011;11875;49.356;2.718;2023-01-28T16:13:30;17.63;;;10.50;;
23404;SDS011;11875;49.356;2.718;2023-01-28T16:15:57;19.67;;;10.90;;
23404;SDS011;11875;49.356;2.718;2023-01-28T16:18:33;18.57;;;10.50;;
23404;SDS011;11875;49.356;2.718;2023-01-28T16:21:08;18.20;;;10.47;;
23404;SDS011;11875;49.356;2.718;2023-01-28T16:23:48;18.67;;;11.03;;
23404;SDS011;11875;49.356;2.718;2023-01-28T16:26:26;24.10;;;11.03;;
23404;SDS011;11875;49.356;2.718;2023-01-28T16:28:54;18.23;;;11.87;;
23404;SDS011;11875;49.356;2.718;2023-01-28T16:31:19;19.73;;;10.63;;
23404;SDS011;11875;49.356;2.718;2023-01-28T16:33:45;18.33;;;10.97;;
23404;SDS011;11875;49.356;2.718;2023-01-28T16:36:11;21.40;;;11.07;;
23404;SDS011;11875;49.356;2.718;2023-01-28T16:38:40;21.27;;;11.83;;
23404;SDS011;11875;49.356;2.718;2023-01-28T16:41:25;19.60;;;10.60;;
23404;SDS011;11875;49.356;2.718;2023-01-28T16:43:53;19.67;;;11.50;;
23404;SDS011;11875;49.356;2.718;2023-01-28T16:46:19;18.10;;;11.20;;
23404;SDS011;11875;49.356;2.718;2023-01-28T16:48:45;19.40;;;11.17;;
23404;SDS011;11875;49.356;2.718;2023-01-28T16:51:14;20.73;;;12.17;;
23404;SDS011;11875;49.356;2.718;2023-01-28T16:53:42;19.07;;;11.93;;
23404;SDS011;11875;49.356;2.718;2023-01-28T16:56:12;20.33;;;11.40;;
23404;SDS011;11875;49.356;2.718;2023-01-28T16:58:42;22.80;;;11.80;;
23404;SDS011;11875;49.356;2.718;2023-01-28T17:01:07;22.20;;;12.70;;
23404;SDS011;11875;49.356;2.718;2023-01-28T17:03:33;21.43;;;12.27;;
23404;SDS011;11875;49.356;2.718;2023-01-28T17:05:59;22.57;;;12.63;;
23404;SDS011;11875;49.356;2.718;2023-01-28T17:08:24;22.00;;;12.37;;
23404;SDS011;11875;49.356;2.718;2023-01-28T17:10:53;20.00;;;12.47;;
23404;SDS011;11875;49.356;2.718;2023-01-28T17:13:19;20.30;;;11.20;;
23404;SDS011;11875;49.356;2.718;2023-01-28T17:15:45;19.27;;;12.77;;